Time;durP1;ratioP1;P1;durP2;ratioP2;P2;SDS_P1;SDS_P2;PMS_P1;PMS_P2;Temp;Humidity;BMP_temperature;BMP_pressure;BME280_temperature;BME280_humidity;BME280_pressure;Samples;Min_cycle;Max_cycle;Signal;HPM_P1;HPM_P2
2023/07/20 00:00:39;;;;;;;8.50;3.80;;;;;;;15.89;100.00;101251.53;4939581;29;20344;-95
2023/07/20 00:03:18;;;;;;;11.87;4.23;;;;;;;16.08;100.00;101263.53;4939277;29;20028;-95
2023/07/20 00:05:44;;;;;;;11.02;4.10;;;;;;;16.17;100.00;101264.53;4954890;29;20028;-95
2023/07/20 00:08:10;;;;;;;10.35;4.55;;;;;;;16.24;100.00;101266.91;4951804;29;20039;-96
2023/07/20 00:10:35;;;;;;;7.73;3.80;;;;;;;16.20;100.00;101251.25;4941404;29;20035;-95
2023/07/20 00:13:01;;;;;;;11.87;4.63;;;;;;;16.23;100.00;101265.31;4952037;29;20028;-96
2023/07/20 00:15:26;;;;;;;10.48;3.70;;;;;;;16.20;100.00;101278.31;4938507;29;20028;-96
2023/07/20 00:17:51;;;;;;;12.43;4.30;;;;;;;16.09;100.00;101265.94;4938081;29;20028;-96
2023/07/20 00:20:17;;;;;;;9.00;3.87;;;;;;;16.03;100.00;101272.50;4940094;29;20034;-96
2023/07/20 00:22:43;;;;;;;14.52;4.40;;;;;;;15.89;100.00;101253.44;4938288;29;20036;-95
2023/07/20 00:25:09;;;;;;;9.97;4.30;;;;;;;15.84;100.00;101256.97;4938875;29;20024;-95
2023/07/20 00:27:34;;;;;;;8.30;4.45;;;;;;;15.79;100.00;101261.59;4937534;29;20020;-95
2023/07/20 00:29:59;;;;;;;12.77;4.73;;;;;;;15.69;100.00;101270.59;4939025;29;20032;-96
2023/07/20 00:32:25;;;;;;;10.43;4.53;;;;;;;15.63;100.00;101267.09;4939004;29;20024;-95
2023/07/20 00:34:50;;;;;;;10.27;4.10;;;;;;;15.57;100.00;101262.84;4939296;29;20031;-95
2023/07/20 00:37:15;;;;;;;11.05;4.75;;;;;;;15.53;100.00;101259.09;4937290;29;20655;-95
2023/07/20 00:39:41;;;;;;;11.83;4.60;;;;;;;15.48;100.00;101262.63;4922511;29;20492;-95
2023/07/20 00:42:06;;;;;;;9.00;4.80;;;;;;;15.38;100.00;101262.69;4939866;29;20472;-95
2023/07/20 00:44:31;;;;;;;9.13;5.07;;;;;;;15.37;100.00;101266.47;4938998;29;20043;-94
2023/07/20 00:46:57;;;;;;;10.75;4.40;;;;;;;15.45;100.00;101268.59;4938650;29;20027;-94
2023/07/20 00:49:23;;;;;;;12.53;4.67;;;;;;;15.35;100.00;101257.84;4939095;29;20024;-94
2023/07/20 00:51:50;;;;;;;9.75;4.70;;;;;;;15.40;100.00;101272.13;4941326;29;20096;-95
2023/07/20 00:54:16;;;;;;;8.35;4.75;;;;;;;15.22;100.00;101249.28;4938347;29;20028;-95
2023/07/20 00:56:42;;;;;;;20.42;5.20;;;;;;;15.31;100.00;101256.81;4937118;29;20036;-95
2023/07/20 00:59:08;;;;;;;11.53;4.97;;;;;;;15.37;100.00;101271.88;4937939;29;20046;-96
2023/07/20 01:01:33;;;;;;;10.90;4.78;;;;;;;15.39;100.00;101269.69;4935799;29;20547;-96
2023/07/20 01:03:58;;;;;;;11.97;4.80;;;;;;;15.34;100.00;101277.84;4936763;29;20032;-95
2023/07/20 01:06:46;;;;;;;10.73;5.47;;;;;;;15.37;100.00;101274.56;4939947;29;20464;-95
2023/07/20 01:09:18;;;;;;;16.30;5.13;;;;;;;15.34;100.00;101269.75;4940719;29;20069;-96
2023/07/20 01:12:17;;;;;;;11.07;5.15;;;;;;;15.30;100.00;101274.88;4940816;29;20016;-96
2023/07/20 01:14:43;;;;;;;10.40;5.43;;;;;;;15.21;100.00;101276.56;4937831;29;20048;-95
2023/07/20 01:17:08;;;;;;;11.67;5.50;;;;;;;15.20;100.00;101275.75;4941203;29;20078;-96
2023/07/20 01:19:34;;;;;;;10.02;5.50;;;;;;;15.21;100.00;101276.56;4946344;29;20022;-94
2023/07/20 01:22:09;;;;;;;13.50;5.53;;;;;;;15.19;100.00;101276.03;4959426;29;20012;-94
2023/07/20 01:24:56;;;;;;;13.55;5.65;;;;;;;15.36;100.00;101297.25;4960884;29;20031;-96
2023/07/20 01:27:48;;;;;;;13.57;5.95;;;;;;;15.42;100.00;101279.94;4948121;29;20060;-94
2023/07/20 01:30:54;;;;;;;12.88;5.82;;;;;;;15.62;100.00;101289.78;4946808;29;20015;-95
2023/07/20 01:33:21;;;;;;;12.20;5.60;;;;;;;15.64;100.00;101276.03;4939550;29;20464;-95
2023/07/20 01:35:59;;;;;;;13.37;5.83;;;;;;;15.71;100.00;101279.19;4941385;29;20511;-95
2023/07/20 01:38:25;;;;;;;10.65;5.32;;;;;;;15.79;100.00;101275.13;4941182;29;20031;-95
2023/07/20 01:40:51;;;;;;;13.10;5.65;;;;;;;15.80;100.00;101280.22;4939251;29;20106;-95
2023/07/20 01:43:17;;;;;;;11.55;5.65;;;;;;;15.87;100.00;101286.16;4939444;29;20483;-96
2023/07/20 01:45:43;;;;;;;13.15;5.50;;;;;;;15.86;100.00;101279.13;4939949;29;20050;-96
2023/07/20 01:48:09;;;;;;;11.70;6.07;;;;;;;15.81;100.00;101268.34;4940432;29;20032;-95
2023/07/20 01:50:34;;;;;;;12.77;5.85;;;;;;;15.95;100.00;101275.81;4940286;29;20058;-96
2023/07/20 01:53:00;;;;;;;10.70;5.70;;;;;;;16.06;100.00;101288.16;4940128;29;20019;-96
2023/07/20 01:55:25;;;;;;;18.15;5.90;;;;;;;16.02;100.00;101284.41;4939700;29;20038;-96
2023/07/20 01:57:51;;;;;;;13.13;5.57;;;;;;;16.08;100.00;101288.66;4938239;29;20055;-96
2023/07/20 02:00:18;;;;;;;12.67;5.67;;;;;;;16.13;100.00;101296.75;4939421;29;20515;-96
2023/07/20 02:02:44;;;;;;;16.58;6.28;;;;;;;16.02;100.00;101282.50;4939677;29;20506;-95
2023/07/20 02:05:09;;;;;;;14.23;6.53;;;;;;;15.99;100.00;101293.09;4939903;29;20024;-95
2023/07/20 02:07:34;;;;;;;16.02;6.43;;;;;;;15.94;100.00;101302.03;4939862;29;20543;-95
2023/07/20 02:10:00;;;;;;;16.53;6.60;;;;;;;15.73;100.00;101274.31;4939184;29;20152;-95
2023/07/20 02:12:25;;;;;;;13.83;6.07;;;;;;;15.70;100.00;101286.50;4939994;29;20095;-96
2023/07/20 02:14:51;;;;;;;15.47;6.70;;;;;;;15.66;100.00;101301.66;4939031;29;20030;-96
2023/07/20 02:17:16;;;;;;;11.23;6.90;;;;;;;15.60;100.00;101305.50;4939017;29;20039;-96
2023/07/20 02:19:42;;;;;;;16.03;7.33;;;;;;;15.47;100.00;101290.72;4939911;29;20028;-95
2023/07/20 02:22:07;;;;;;;14.83;7.10;;;;;;;15.51;100.00;101301.75;4940470;29;20492;-96
2023/07/20 02:24:33;;;;;;;12.13;7.13;;;;;;;15.60;100.00;101309.00;4939297;29;20028;-96
2023/07/20 02:26:59;;;;;;;13.80;8.45;;;;;;;15.52;100.00;101301.47;4938144;29;20294;-95
2023/07/20 02:29:24;;;;;;;15.33;8.67;;;;;;;15.55;100.00;101306.31;4938627;29;20027;-95
2023/07/20 02:31:50;;;;;;;14.13;9.43;;;;;;;15.64;100.00;101317.34;4937162;29;20079;-95
2023/07/20 02:34:15;;;;;;;17.73;9.70;;;;;;;15.53;100.00;101308.50;4937750;29;20028;-96
2023/07/20 02:36:42;;;;;;;15.88;9.70;;;;;;;15.58;100.00;101308.47;4937646;29;20038;-96
2023/07/20 02:39:08;;;;;;;15.82;10.75;;;;;;;15.62;100.00;101316.81;4938081;29;20153;-96
2023/07/20 02:41:33;;;;;;;14.87;9.77;;;;;;;15.69;100.00;101321.91;4939526;29;20028;-95
2023/07/20 02:44:00;;;;;;;15.75;10.43;;;;;;;15.67;100.00;101313.28;4945950;29;20016;-95
2023/07/20 02:46:25;;;;;;;16.45;9.68;;;;;;;15.63;100.00;101307.63;4943931;29;20035;-95
2023/07/20 02:48:50;;;;;;;13.33;9.03;;;;;;;15.81;100.00;101324.25;4938595;29;20058;-95
2023/07/20 02:51:16;;;;;;;14.20;9.47;;;;;;;15.73;100.00;101318.38;4950728;29;20012;-96
2023/07/20 02:53:41;;;;;;;12.83;8.77;;;;;;;15.78;100.00;101320.22;4940795;29;20767;-95
2023/07/20 02:56:07;;;;;;;14.30;9.03;;;;;;;15.88;100.00;101336.41;4938626;29;20361;-95
2023/07/20 02:58:36;;;;;;;15.17;9.37;;;;;;;15.82;100.00;101326.69;4937915;29;20028;-95
2023/07/20 03:01:02;;;;;;;18.85;9.45;;;;;;;15.77;100.00;101328.63;4937738;29;20034;-96
2023/07/20 03:03:27;;;;;;;17.50;9.00;;;;;;;15.80;100.00;101328.84;4937807;29;20031;-95
2023/07/20 03:05:54;;;;;;;14.80;9.63;;;;;;;15.78;100.00;101335.63;4938192;29;20032;-94
2023/07/20 03:08:20;;;;;;;18.48;9.98;;;;;;;15.78;100.00;101341.03;4937689;29;20031;-95
2023/07/20 03:10:45;;;;;;;17.53;10.13;;;;;;;15.67;100.00;101340.31;4937257;29;20035;-96
2023/07/20 03:13:12;;;;;;;14.53;8.90;;;;;;;15.58;100.00;101321.19;4936592;29;20272;-95
2023/07/20 03:15:38;;;;;;;16.20;9.55;;;;;;;15.65;100.00;101345.97;4936653;28;20506;-95
2023/07/20 03:18:04;;;;;;;13.80;10.00;;;;;;;15.51;100.00;101335.00;4938068;29;20023;-96
2023/07/20 03:20:29;;;;;;;13.60;10.27;;;;;;;15.47;100.00;101341.22;4936375;28;20039;-96
2023/07/20 03:22:54;;;;;;;13.47;9.87;;;;;;;15.42;100.00;101345.56;4938678;29;20034;-96
2023/07/20 03:25:21;;;;;;;11.10;7.87;;;;;;;15.33;100.00;101339.13;4938543;29;20043;-95
2023/07/20 03:27:46;;;;;;;8.80;7.67;;;;;;;15.39;100.00;101364.19;4935591;29;20283;-95
2023/07/20 03:30:12;;;;;;;9.05;6.90;;;;;;;15.32;100.00;101361.00;4937632;29;20107;-94
2023/07/20 03:32:37;;;;;;;10.73;5.87;;;;;;;15.28;100.00;101361.56;4919375;29;20485;-96
2023/07/20 03:35:03;;;;;;;12.50;5.95;;;;;;;15.17;100.00;101341.06;4936039;29;20400;-95
2023/07/20 03:37:28;;;;;;;7.33;6.30;;;;;;;15.20;100.00;101356.72;4937295;29;20035;-94
2023/07/20 03:39:54;;;;;;;6.40;5.80;;;;;;;15.24;100.00;101365.88;4937879;29;20043;-96
2023/07/20 03:42:19;;;;;;;6.87;6.07;;;;;;;15.17;100.00;101353.78;4937524;29;20149;-96
2023/07/20 03:44:44;;;;;;;6.35;5.68;;;;;;;15.23;100.00;101368.88;4936530;29;20038;-96
2023/07/20 03:47:10;;;;;;;7.63;5.83;;;;;;;15.10;100.00;101362.97;4937461;29;20015;-94
2023/07/20 03:49:35;;;;;;;8.50;5.87;;;;;;;15.04;100.00;101371.34;4936916;28;20373;-95
2023/07/20 03:52:03;;;;;;;6.77;6.07;;;;;;;14.86;100.00;101359.28;4939823;29;20027;-95
2023/07/20 03:54:28;;;;;;;6.50;5.80;;;;;;;14.81;100.00;101362.78;4943344;28;20031;-95
2023/07/20 03:56:54;;;;;;;8.02;6.35;;;;;;;14.80;100.00;101366.53;4953228;29;20027;-95
2023/07/20 03:59:20;;;;;;;8.10;5.70;;;;;;;14.86;100.00;101375.47;4955140;29;20035;-94
2023/07/20 04:01:45;;;;;;;9.23;6.63;;;;;;;14.80;100.00;101361.16;4941178;29;20499;-94
2023/07/20 04:04:11;;;;;;;11.73;7.60;;;;;;;14.96;100.00;101372.72;4947031;29;20067;-95
2023/07/20 04:06:37;;;;;;;13.20;9.30;;;;;;;15.03;100.00;101383.22;4946616;29;20051;-94
2023/07/20 04:09:04;;;;;;;12.00;8.93;;;;;;;15.03;100.00;101377.84;4940658;29;20039;-96
2023/07/20 04:11:30;;;;;;;13.23;9.43;;;;;;;14.94;100.00;101375.72;4952986;29;20038;-94
2023/07/20 04:13:56;;;;;;;10.43;8.03;;;;;;;14.89;100.00;101370.31;4955934;29;20039;-95
2023/07/20 04:16:21;;;;;;;13.03;9.17;;;;;;;14.78;100.00;101371.44;4940943;29;20287;-95
2023/07/20 04:18:47;;;;;;;15.57;9.15;;;;;;;14.71;100.00;101371.69;4941426;29;20020;-95
2023/07/20 04:21:12;;;;;;;11.97;7.73;;;;;;;14.76;100.00;101374.38;4940285;29;20035;-95
2023/07/20 04:23:37;;;;;;;11.77;8.63;;;;;;;14.71;100.00;101370.91;4943393;29;20035;-95
2023/07/20 04:26:03;;;;;;;11.40;9.10;;;;;;;14.77;100.00;101372.50;4939385;29;20480;-95
2023/07/20 04:28:28;;;;;;;10.63;7.45;;;;;;;14.88;100.00;101379.50;4937797;29;20419;-94
2023/07/20 04:30:53;;;;;;;11.47;7.77;;;;;;;15.08;100.00;101386.72;4940111;29;20028;-95
2023/07/20 04:33:20;;;;;;;10.80;7.90;;;;;;;14.99;100.00;101375.69;4934476;29;20028;-95
2023/07/20 04:35:51;;;;;;;11.23;7.55;;;;;;;14.99;100.00;101391.88;4932939;29;20031;-95
2023/07/20 04:38:17;;;;;;;11.63;7.85;;;;;;;14.85;100.00;101380.03;4935009;29;20043;-94
2023/07/20 04:40:44;;;;;;;11.43;7.63;;;;;;;14.88;100.00;101382.19;4938853;29;20028;-94
2023/07/20 04:43:09;;;;;;;10.88;6.80;;;;;;;14.99;100.00;101391.06;4942309;29;20232;-95
2023/07/20 04:45:35;;;;;;;10.63;7.87;;;;;;;14.97;100.00;101377.03;4938382;29;20034;-96
2023/07/20 04:48:00;;;;;;;9.53;7.13;;;;;;;15.17;100.00;101396.97;4942372;29;20082;-95
2023/07/20 04:50:25;;;;;;;10.07;7.23;;;;;;;15.20;100.00;101391.00;4941747;29;20376;-95
2023/07/20 04:52:51;;;;;;;7.68;6.63;;;;;;;15.17;100.00;101386.97;4940016;28;20114;-95
2023/07/20 04:55:17;;;;;;;10.07;7.03;;;;;;;15.19;100.00;101384.00;4939090;29;20123;-95
2023/07/20 04:57:42;;;;;;;8.63;6.97;;;;;;;15.27;100.00;101391.50;4937270;29;20362;-95
2023/07/20 05:00:11;;;;;;;10.77;7.10;;;;;;;15.26;100.00;101384.50;4938994;29;20135;-95
2023/07/20 05:02:36;;;;;;;8.90;6.70;;;;;;;15.70;100.00;101388.38;4939160;29;20028;-96
2023/07/20 05:05:05;;;;;;;7.03;6.30;;;;;;;16.55;100.00;101383.72;4940890;29;20031;-94
2023/07/20 05:07:32;;;;;;;7.68;5.97;;;;;;;17.63;100.00;101389.03;4939473;29;20032;-96
2023/07/20 05:09:57;;;;;;;7.20;5.53;;;;;;;18.41;100.00;101383.28;4940465;29;20028;-94
2023/07/20 05:12:23;;;;;;;6.07;5.23;;;;;;;19.07;100.00;101394.03;4940279;29;20080;-95
2023/07/20 05:14:48;;;;;;;6.75;5.18;;;;;;;19.56;97.15;101374.56;4944080;29;20035;-95
2023/07/20 05:17:13;;;;;;;6.30;4.67;;;;;;;20.07;93.21;101369.91;4943362;29;20075;-95
2023/07/20 05:19:39;;;;;;;5.27;4.77;;;;;;;20.61;89.46;101379.97;4942101;29;20486;-96
2023/07/20 05:22:05;;;;;;;5.77;4.53;;;;;;;21.09;85.37;101383.88;4945548;29;20519;-96
2023/07/20 05:24:30;;;;;;;5.50;4.75;;;;;;;21.61;83.20;101397.63;4949822;29;20016;-95
2023/07/20 05:26:56;;;;;;;6.70;4.82;;;;;;;21.83;80.78;101395.91;4948219;29;20032;-96
2023/07/20 05:29:21;;;;;;;6.53;5.80;;;;;;;21.85;79.32;101384.66;4940589;29;20532;-95
2023/07/20 05:31:47;;;;;;;6.60;6.00;;;;;;;21.96;78.38;101406.97;4958333;29;20023;-95
2023/07/20 05:34:12;;;;;;;6.53;5.77;;;;;;;22.05;76.34;101399.59;4941587;29;20074;-96
2023/07/20 05:36:39;;;;;;;7.87;6.03;;;;;;;21.98;78.43;101416.44;4940621;29;20493;-93
2023/07/20 05:39:04;;;;;;;7.27;6.27;;;;;;;21.98;78.34;101413.72;4943490;29;20283;-94
2023/07/20 05:41:30;;;;;;;6.82;5.75;;;;;;;22.06;76.83;101412.09;4942957;29;20028;-95
2023/07/20 05:43:55;;;;;;;8.60;6.33;;;;;;;22.09;76.46;101404.06;4940349;29;20172;-95
2023/07/20 05:46:20;;;;;;;7.77;6.43;;;;;;;22.43;75.24;101426.22;4939316;29;20087;-95
2023/07/20 05:48:46;;;;;;;7.07;6.37;;;;;;;22.41;74.28;101424.88;4943531;29;20244;-96
2023/07/20 05:51:11;;;;;;;7.90;5.77;;;;;;;22.38;74.71;101429.88;4952075;29;20035;-95
2023/07/20 05:53:37;;;;;;;9.50;6.50;;;;;;;22.16;74.68;101433.59;4954827;29;20280;-96
2023/07/20 05:56:03;;;;;;;6.93;5.85;;;;;;;21.80;75.34;101432.00;4957189;29;20113;-95
2023/07/20 05:58:28;;;;;;;7.03;5.90;;;;;;;21.66;76.65;101423.16;4953578;29;20032;-95
2023/07/20 06:00:54;;;;;;;6.60;5.77;;;;;;;21.29;77.61;101428.81;4953915;29;20087;-96
2023/07/20 06:03:21;;;;;;;5.90;5.13;;;;;;;20.58;81.29;101430.41;4954758;29;20032;-96
2023/07/20 06:05:46;;;;;;;5.60;5.10;;;;;;;19.73;85.68;101434.53;4953756;29;20276;-96
2023/07/20 06:08:13;;;;;;;6.40;4.93;;;;;;;19.41;88.50;101424.63;4953958;29;20149;-96
2023/07/20 06:10:38;;;;;;;5.20;4.65;;;;;;;19.41;90.04;101436.28;4956893;29;20032;-96
2023/07/20 06:13:04;;;;;;;5.33;4.63;;;;;;;19.48;89.09;101425.00;4958448;29;20060;-96
2023/07/20 06:15:39;;;;;;;7.27;4.73;;;;;;;19.46;89.76;101438.09;4956903;29;20032;-96
2023/07/20 06:18:05;;;;;;;9.60;5.73;;;;;;;19.29;90.03;101441.44;4958800;29;20336;-96
2023/07/20 06:20:31;;;;;;;7.47;5.68;;;;;;;19.09;91.66;101438.00;4958194;29;20031;-96
2023/07/20 06:22:57;;;;;;;5.30;4.80;;;;;;;18.90;92.46;101449.72;4958658;29;20071;-96
2023/07/20 06:25:22;;;;;;;5.77;5.17;;;;;;;18.46;94.16;101440.97;4954892;29;20028;-96
2023/07/20 06:27:50;;;;;;;5.23;4.43;;;;;;;18.04;96.67;101433.78;4950576;29;20032;-96
2023/07/20 06:30:15;;;;;;;5.50;4.85;;;;;;;17.79;98.85;101443.84;4956848;29;20042;-96
2023/07/20 06:32:41;;;;;;;6.97;5.20;;;;;;;17.58;100.00;101446.00;4961146;29;20012;-96
2023/07/20 06:35:08;;;;;;;5.57;4.90;;;;;;;17.51;100.00;101440.94;4960830;29;20199;-96
2023/07/20 06:37:34;;;;;;;5.67;4.77;;;;;;;17.56;100.00;101446.28;4958564;29;20059;-96
2023/07/20 06:39:59;;;;;;;5.87;5.20;;;;;;;17.78;100.00;101439.50;4957532;29;20676;-96
2023/07/20 06:42:24;;;;;;;6.00;4.70;;;;;;;17.98;98.81;101436.53;4953988;29;20083;-96
2023/07/20 06:44:50;;;;;;;5.40;4.90;;;;;;;18.08;98.64;101440.19;4959296;29;20291;-96
2023/07/20 06:47:15;;;;;;;6.17;4.90;;;;;;;18.25;98.14;101426.94;4960265;29;20050;-96
2023/07/20 06:49:40;;;;;;;5.50;5.00;;;;;;;18.57;97.75;101438.91;4959523;28;20030;-96
2023/07/20 06:52:07;;;;;;;7.20;5.00;;;;;;;18.85;96.13;101433.53;4960056;29;20085;-96
2023/07/20 06:54:37;;;;;;;6.45;5.15;;;;;;;19.28;95.01;101437.09;4958728;29;20043;-96
2023/07/20 06:57:08;;;;;;;5.43;4.60;;;;;;;19.82;93.19;101434.59;4957925;29;20042;-96
2023/07/20 06:59:34;;;;;;;4.97;4.57;;;;;;;20.13;88.35;101436.69;4957610;29;20063;-96
2023/07/20 07:02:02;;;;;;;4.03;3.63;;;;;;;20.17;86.03;101443.13;4956700;29;20008;-96
2023/07/20 07:05:06;;;;;;;6.10;5.15;;;;;;;19.97;87.30;101433.50;4959515;29;20015;-96
2023/07/20 09:53:17;;;;;;;2.13;2.00;;;;;;;22.72;56.35;101457.44;5429841;23;20051;-96
2023/07/20 10:55:46;;;;;;;2.80;1.60;;;;;;;25.43;42.87;101416.41;2720184;23;20313;-96
2023/07/20 11:03:35;;;;;;;1.13;1.03;;;;;;;26.17;42.09;101387.94;4997243;23;20064;-96
2023/07/20 11:06:23;;;;;;;2.63;1.20;;;;;;;26.30;41.92;101406.75;4936395;29;20295;-96
2023/07/20 11:08:55;;;;;;;1.48;1.20;;;;;;;26.54;39.17;101383.03;4936417;29;20047;-96
2023/07/20 11:11:27;;;;;;;2.00;1.35;;;;;;;26.82;38.55;101406.88;4928712;29;20088;-96
2023/07/20 11:14:00;;;;;;;2.35;1.30;;;;;;;26.56;38.22;101397.22;4934076;29;20028;-96
2023/07/20 11:21:43;;;;;;;1.50;1.40;;;;;;;25.94;39.92;101369.25;5496265;23;20035;-96
2023/07/20 11:27:03;;;;;;;3.28;1.50;;;;;;;25.48;43.33;101396.97;5195371;23;20048;-96
2023/07/20 11:29:31;;;;;;;1.30;1.20;;;;;;;24.89;42.17;101375.19;4959712;29;20106;-96
2023/07/20 11:34:33;;;;;;;3.45;1.38;;;;;;;24.53;43.52;101352.09;5293001;23;20047;-96
2023/07/20 11:36:59;;;;;;;2.65;1.50;;;;;;;24.43;43.95;101374.44;4960234;29;20016;-96
2023/07/20 11:39:25;;;;;;;1.50;1.40;;;;;;;24.13;43.34;101349.94;5253851;23;20076;-96
2023/07/20 11:41:57;;;;;;;2.30;1.40;;;;;;;23.87;45.48;101351.78;4955448;29;20035;-96
2023/07/20 11:44:28;;;;;;;2.00;1.00;;;;;;;23.85;45.75;101361.47;4960700;29;20080;-96
2023/07/20 11:47:13;;;;;;;1.92;1.25;;;;;;;23.73;46.81;101351.28;4957031;29;20495;-96
2023/07/20 11:54:55;;;;;;;1.00;0.90;;;;;;;23.66;46.04;101349.09;5306553;23;20055;-96
2023/07/20 12:00:11;;;;;;;1.85;1.10;;;;;;;23.65;48.34;101391.25;5411702;23;20048;-96
2023/07/20 12:02:47;;;;;;;1.30;1.20;;;;;;;23.25;48.10;101354.22;4937561;29;20049;-96
2023/07/20 12:18:10;;;;;;;1.77;1.40;;;;;;;24.28;44.51;101346.59;5415866;23;20027;-96
2023/07/20 13:40:45;;;;;;;1.93;1.80;;;;;;;26.68;41.74;101340.56;1814749;23;22232;-96
2023/07/20 13:43:11;;;;;;;6.32;1.65;;;;;;;26.76;41.36;101340.38;4959378;29;20068;-96
2023/07/20 13:45:38;;;;;;;2.92;1.67;;;;;;;26.87;41.12;101334.34;4958126;29;20114;-96
2023/07/20 13:48:03;;;;;;;3.67;1.90;;;;;;;26.87;40.25;101301.34;4956885;29;20031;-96
2023/07/20 13:50:32;;;;;;;4.20;1.95;;;;;;;26.88;38.43;101297.44;4957972;29;20028;-96
2023/07/20 13:52:58;;;;;;;2.20;2.00;;;;;;;26.85;38.79;101337.44;4959466;29;20046;-96
2023/07/20 13:55:24;;;;;;;5.57;2.10;;;;;;;26.99;39.93;101320.50;4962285;29;20030;-96
2023/07/20 13:57:50;;;;;;;1.63;1.53;;;;;;;27.27;38.53;101325.00;4962006;29;20051;-96
2023/07/20 15:42:45;;;;;;;4.60;2.10;;;;;;;24.21;42.94;101206.72;5560240;23;20078;-96
2023/07/20 16:21:27;;;;;;;3.53;1.60;;;;;;;23.58;46.25;101229.59;5747333;23;20101;-96
2023/07/20 16:26:30;;;;;;;3.33;1.50;;;;;;;23.21;47.58;101193.94;5039433;23;20046;-96
2023/07/20 16:28:57;;;;;;;1.98;1.52;;;;;;;23.37;47.77;101224.97;4958421;29;20012;-96
2023/07/20 16:31:23;;;;;;;2.85;1.70;;;;;;;23.09;48.31;101181.00;4959051;29;20008;-96
2023/07/20 16:33:48;;;;;;;1.80;1.70;;;;;;;23.13;47.42;101188.19;4957259;29;20095;-96
2023/07/20 16:36:25;;;;;;;1.90;1.40;;;;;;;23.06;47.97;101178.94;4956342;29;20747;-96
2023/07/20 16:38:52;;;;;;;1.77;1.52;;;;;;;23.25;47.87;101203.06;4963019;29;20034;-96
2023/07/20 16:43:58;;;;;;;1.80;1.50;;;;;;;23.09;48.71;101216.53;5264347;23;20048;-97
2023/07/20 16:46:24;;;;;;;3.60;1.50;;;;;;;22.68;48.43;101177.91;4960834;29;20367;-96
2023/07/20 16:48:49;;;;;;;2.03;1.20;;;;;;;22.75;48.64;101216.44;4959703;29;20016;-96
2023/07/20 17:01:36;;;;;;;3.53;1.73;;;;;;;21.83;52.01;101172.25;4957391;29;20060;-96
2023/07/20 17:04:03;;;;;;;4.57;2.25;;;;;;;21.58;53.45;101174.69;4959898;29;20023;-96
2023/07/20 17:09:01;;;;;;;4.40;2.50;;;;;;;21.26;56.12;101182.28;5024534;23;20070;-96
2023/07/20 17:11:29;;;;;;;8.97;2.70;;;;;;;20.96;57.46;101175.88;4941372;29;20345;-96
2023/07/20 17:14:00;;;;;;;3.35;2.20;;;;;;;20.78;57.90;101177.78;4940214;29;20059;-96
2023/07/20 17:16:31;;;;;;;5.22;2.58;;;;;;;20.75;60.02;101213.78;4941501;29;20020;-95
2023/07/20 17:18:57;;;;;;;4.53;3.63;;;;;;;20.62;62.42;101232.69;4942626;29;20042;-96
2023/07/20 17:21:23;;;;;;;8.23;4.00;;;;;;;20.07;66.24;101228.47;4941641;29;20103;-96
2023/07/20 17:23:50;;;;;;;5.90;3.70;;;;;;;19.56;69.54;101206.88;4943244;29;20028;-96
2023/07/20 17:26:16;;;;;;;4.10;3.70;;;;;;;19.52;70.34;101212.13;5012748;23;20292;-96
2023/07/20 17:28:47;;;;;;;5.13;4.10;;;;;;;19.41;72.54;101216.19;4960862;29;20137;-95
2023/07/20 17:31:12;;;;;;;5.28;4.78;;;;;;;19.45;73.73;101235.38;4959664;29;20016;-96
2023/07/20 17:33:38;;;;;;;5.17;4.67;;;;;;;19.08;75.01;101197.41;4958006;29;20007;-95
2023/07/20 17:36:04;;;;;;;5.35;4.70;;;;;;;18.99;77.18;101205.47;4956606;29;20192;-96
2023/07/20 17:38:48;;;;;;;3.87;3.47;;;;;;;19.03;76.37;101213.81;4958210;29;20091;-96
2023/07/20 17:41:31;;;;;;;4.75;3.53;;;;;;;19.18;76.54;101232.47;4958358;29;20028;-96
2023/07/20 17:44:19;;;;;;;4.10;3.75;;;;;;;19.15;76.55;101227.69;4959667;29;20441;-96
2023/07/20 17:46:51;;;;;;;5.75;4.15;;;;;;;18.95;75.91;101209.91;4957821;29;20030;-96
2023/07/20 17:49:17;;;;;;;4.18;3.78;;;;;;;19.02;75.40;101218.44;4952586;29;20015;-96
2023/07/20 17:51:44;;;;;;;3.83;3.45;;;;;;;18.86;75.66;101201.66;4958452;29;20027;-96
2023/07/20 17:54:32;;;;;;;3.45;3.15;;;;;;;18.86;76.39;101179.94;4955742;29;20039;-96
2023/07/20 17:57:01;;;;;;;4.15;3.10;;;;;;;18.99;72.88;101199.25;4951957;29;20024;-96
2023/07/20 17:59:28;;;;;;;3.75;3.45;;;;;;;18.87;71.81;101175.31;4949274;29;20023;-96
2023/07/20 18:02:16;;;;;;;3.80;3.10;;;;;;;19.16;71.14;101218.41;4937257;29;20016;-96
2023/07/20 18:05:02;;;;;;;3.40;3.10;;;;;;;18.90;72.93;101178.22;4961129;29;20367;-96
2023/07/20 18:07:44;;;;;;;3.15;2.95;;;;;;;19.25;71.86;101217.66;4959559;29;20014;-96
2023/07/20 18:10:10;;;;;;;4.07;3.45;;;;;;;19.05;72.00;101206.97;4942941;29;20032;-96
2023/07/20 18:15:12;;;;;;;4.97;3.80;;;;;;;19.15;73.07;101216.81;5102536;23;20055;-96
2023/07/20 18:17:39;;;;;;;4.30;3.47;;;;;;;19.04;73.28;101220.84;4943467;29;20027;-94
2023/07/20 18:20:06;;;;;;;3.67;3.37;;;;;;;18.99;73.78;101213.63;4937439;29;20284;-94
2023/07/20 18:22:32;;;;;;;4.22;3.92;;;;;;;19.03;72.87;101224.66;4958357;29;20026;-94
2023/07/20 18:25:19;;;;;;;4.53;4.22;;;;;;;18.87;73.79;101214.13;4959741;29;20087;-95
2023/07/20 18:27:48;;;;;;;4.38;3.97;;;;;;;18.82;73.75;101225.06;4946476;29;20028;-96
2023/07/20 18:30:18;;;;;;;5.35;4.40;;;;;;;18.84;75.29;101230.22;4956596;29;20023;-95
2023/07/20 18:32:45;;;;;;;4.93;3.80;;;;;;;18.80;74.23;101232.75;4955435;29;20087;-96
2023/07/20 18:35:11;;;;;;;3.40;3.10;;;;;;;18.83;73.96;101220.47;4957668;29;20068;-95
2023/07/20 18:37:38;;;;;;;3.72;3.28;;;;;;;18.92;73.99;101227.59;4956746;29;20039;-95
2023/07/20 18:40:06;;;;;;;3.88;3.35;;;;;;;19.00;75.75;101226.09;4958892;29;20046;-96
2023/07/20 18:42:34;;;;;;;3.83;2.80;;;;;;;18.99;77.54;101221.78;4951503;29;20031;-94
2023/07/20 18:44:59;;;;;;;3.93;3.33;;;;;;;18.96;75.69;101224.31;4957896;29;20285;-94
2023/07/20 18:47:25;;;;;;;3.55;3.20;;;;;;;18.94;78.76;101215.63;4951363;29;20452;-94
2023/07/20 18:49:54;;;;;;;4.27;3.70;;;;;;;18.77;78.66;101206.22;4944473;29;20027;-95
2023/07/20 18:52:19;;;;;;;4.03;3.53;;;;;;;18.80;76.78;101216.47;4939062;28;20115;-95
2023/07/20 18:54:45;;;;;;;3.90;3.50;;;;;;;18.72;76.95;101195.44;4938788;29;20110;-95
2023/07/20 18:57:17;;;;;;;3.90;3.50;;;;;;;18.86;75.44;101217.94;4947528;29;20051;-92
2023/07/20 18:59:43;;;;;;;4.03;3.60;;;;;;;18.84;78.05;101206.56;4950549;29;20036;-95
2023/07/20 19:02:09;;;;;;;5.50;3.35;;;;;;;18.85;78.86;101221.75;4940326;29;20408;-95
2023/07/20 19:04:35;;;;;;;3.43;3.13;;;;;;;18.85;77.36;101207.41;4937784;29;20087;-94
2023/07/20 19:07:01;;;;;;;3.73;3.30;;;;;;;18.88;78.83;101206.78;4938725;29;20295;-94
2023/07/20 19:09:26;;;;;;;4.28;3.88;;;;;;;18.89;76.60;101209.19;4937182;29;20039;-95
2023/07/20 19:11:51;;;;;;;4.50;4.10;;;;;;;18.96;76.09;101213.44;4938849;29;20027;-94
2023/07/20 19:14:17;;;;;;;5.03;4.53;;;;;;;18.88;74.56;101204.88;4938363;29;20051;-94
2023/07/20 19:16:43;;;;;;;5.33;4.30;;;;;;;18.91;75.64;101206.97;4936919;28;20119;-94
2023/07/20 19:19:08;;;;;;;7.90;4.03;;;;;;;18.81;76.56;101203.69;4939288;29;20039;-95
2023/07/20 19:21:37;;;;;;;4.30;3.83;;;;;;;18.62;76.65;101164.69;4939576;29;20019;-95
2023/07/20 19:24:02;;;;;;;8.98;3.80;;;;;;;18.83;77.07;101199.53;4940075;29;20023;-95
2023/07/20 19:26:28;;;;;;;4.20;3.80;;;;;;;18.71;77.53;101186.50;4942106;29;20509;-95
2023/07/20 19:28:53;;;;;;;4.57;4.10;;;;;;;18.74;76.94;101195.94;4946134;29;20019;-94
2023/07/20 19:31:19;;;;;;;6.20;3.83;;;;;;;18.65;77.84;101187.72;4958094;29;20079;-93
2023/07/20 19:33:45;;;;;;;4.93;4.45;;;;;;;18.65;77.98;101189.63;4950326;29;20032;-93
2023/07/20 19:36:11;;;;;;;5.00;4.60;;;;;;;18.61;78.31;101187.53;4951097;29;20055;-95
2023/07/20 19:38:37;;;;;;;4.63;4.23;;;;;;;18.62;79.12;101186.41;4940673;29;20099;-95
2023/07/20 19:41:05;;;;;;;4.47;4.15;;;;;;;18.62;78.98;101199.97;4939746;29;20419;-95
2023/07/20 19:43:30;;;;;;;5.30;4.50;;;;;;;18.52;79.75;101202.13;4939286;29;20024;-95